createdAt,value
2022-08-26T00:00:10.312Z,23.35
2022-08-26T00:02:45.040Z,23.36
2022-08-26T00:05:18.315Z,23.34
2022-08-26T00:07:56.532Z,23.28
2022-08-26T00:10:28.021Z,23.31
2022-08-26T00:12:56.583Z,23.34
2022-08-26T00:15:31.144Z,23.40
2022-08-26T00:18:22.049Z,23.44
2022-08-26T00:21:06.491Z,23.47
2022-08-26T00:23:41.446Z,23.48
2022-08-26T00:26:15.031Z,23.48
2022-08-26T00:28:53.807Z,23.51
2022-08-26T00:31:40.843Z,23.51
2022-08-26T00:34:30.000Z,23.47
2022-08-26T00:37:16.164Z,23.46
2022-08-26T00:40:05.374Z,23.46
2022-08-26T00:42:57.016Z,23.42
2022-08-26T00:45:35.732Z,23.38
2022-08-26T00:48:14.667Z,23.34
2022-08-26T00:50:55.376Z,23.32
2022-08-26T00:53:32.763Z,23.28
2022-08-26T00:56:17.655Z,23.26
2022-08-26T00:59:00.341Z,23.23
2022-08-26T01:01:41.733Z,23.19
2022-08-26T01:04:32.393Z,23.18
2022-08-26T01:07:04.424Z,23.15
2022-08-26T01:09:44.359Z,22.98
2022-08-26T01:12:22.132Z,22.96
2022-08-26T01:15:00.351Z,22.91
2022-08-26T01:17:35.896Z,22.93
2022-08-26T01:20:19.534Z,22.79
2022-08-26T01:22:58.065Z,22.73
2022-08-26T01:25:46.583Z,22.60
2022-08-26T01:28:44.159Z,22.51
2022-08-26T01:31:31.418Z,22.44
2022-08-26T01:34:12.478Z,22.39
2022-08-26T01:36:52.422Z,22.39
2022-08-26T01:39:34.789Z,22.44
2022-08-26T01:42:19.995Z,22.37
2022-08-26T01:45:01.639Z,22.31
2022-08-26T01:47:44.061Z,22.28
2022-08-26T01:50:28.121Z,22.26
2022-08-26T01:53:17.454Z,22.23
2022-08-26T01:55:57.097Z,22.22
2022-08-26T01:58:41.195Z,22.22
2022-08-26T02:01:09.818Z,22.11
2022-08-26T02:03:51.021Z,22.07
2022-08-26T02:06:25.120Z,22.04
2022-08-26T02:09:07.319Z,22.03
2022-08-26T02:11:54.815Z,22.01
2022-08-26T02:14:44.523Z,21.89
2022-08-26T02:17:19.250Z,21.82
2022-08-26T02:19:58.583Z,21.80
2022-08-26T02:22:38.069Z,21.82
2022-08-26T02:25:30.312Z,21.77
2022-08-26T02:28:00.014Z,21.78
2022-08-26T02:30:32.060Z,21.74
2022-08-26T02:33:03.797Z,21.65
2022-08-26T02:35:34.483Z,21.68
2022-08-26T02:38:03.846Z,21.68
2022-08-26T02:40:42.268Z,21.72
2022-08-26T02:43:12.611Z,21.80
2022-08-26T02:45:41.401Z,21.87
2022-08-26T02:48:13.505Z,21.82
2022-08-26T02:50:41.891Z,21.73
2022-08-26T02:53:12.207Z,21.74
2022-08-26T02:55:42.340Z,21.70
2022-08-26T02:58:12.491Z,21.61
2022-08-26T03:00:53.459Z,21.55
2022-08-26T03:03:23.531Z,21.47
2022-08-26T03:05:52.091Z,21.49
2022-08-26T03:08:20.873Z,21.54
2022-08-26T03:10:49.966Z,21.58
2022-08-26T03:13:19.750Z,21.62
2022-08-26T03:15:47.978Z,21.62
2022-08-26T03:18:16.443Z,21.53
2022-08-26T03:20:44.858Z,21.48
2022-08-26T03:23:13.109Z,21.43
2022-08-26T03:25:41.325Z,21.38
2022-08-26T03:28:09.930Z,21.38
2022-08-26T03:30:45.489Z,21.36
2022-08-26T03:33:14.872Z,21.34
2022-08-26T03:35:45.645Z,21.40
2022-08-26T03:38:13.838Z,21.45
2022-08-26T03:40:43.661Z,21.50
2022-08-26T03:43:12.962Z,21.51
2022-08-26T03:45:43.244Z,21.52
2022-08-26T03:48:14.561Z,21.51
2022-08-26T03:50:43.319Z,21.45
2022-08-26T03:53:13.087Z,21.39
2022-08-26T03:55:43.187Z,21.38
2022-08-26T03:58:11.822Z,21.40
2022-08-26T04:00:40.090Z,21.39
2022-08-26T04:03:18.497Z,21.38
2022-08-26T04:05:46.963Z,21.37
2022-08-26T04:08:15.100Z,21.37
2022-08-26T04:10:43.755Z,21.35
2022-08-26T04:13:12.325Z,21.35
2022-08-26T04:15:40.539Z,21.38
2022-08-26T04:18:10.163Z,21.41
2022-08-26T04:20:39.487Z,21.41
2022-08-26T04:23:07.858Z,21.41
2022-08-26T04:25:36.231Z,21.49
2022-08-26T04:28:04.878Z,21.63
2022-08-26T04:30:33.700Z,21.71
2022-08-26T04:33:12.639Z,21.75
2022-08-26T04:35:44.152Z,21.78
2022-08-26T04:38:12.767Z,21.83
2022-08-26T04:40:46.596Z,21.90
2022-08-26T04:43:15.407Z,21.94
2022-08-26T04:45:44.612Z,21.97
2022-08-26T04:48:13.707Z,22.00
2022-08-26T04:50:49.430Z,22.08
2022-08-26T04:53:17.988Z,22.13
2022-08-26T04:55:46.448Z,22.19
2022-08-26T04:58:17.878Z,22.21
2022-08-26T05:00:46.864Z,22.24
2022-08-26T05:03:15.547Z,22.25
2022-08-26T05:05:46.936Z,22.31
2022-08-26T05:08:17.868Z,22.33
2022-08-26T05:10:49.237Z,22.37
2022-08-26T05:13:20.948Z,22.43
2022-08-26T05:15:50.162Z,22.50
2022-08-26T05:18:21.244Z,22.57
2022-08-26T05:20:53.873Z,22.63
2022-08-26T05:23:25.052Z,22.71
2022-08-26T05:25:59.198Z,22.79
2022-08-26T05:28:30.120Z,22.90
2022-08-26T05:30:58.302Z,23.01
2022-08-26T05:33:26.520Z,23.10
2022-08-26T05:35:55.088Z,23.17
2022-08-26T05:38:24.841Z,23.25
2022-08-26T05:40:55.250Z,23.35
2022-08-26T05:43:23.403Z,23.42
2022-08-26T05:45:52.197Z,23.49
2022-08-26T05:48:22.763Z,23.58
2022-08-26T05:50:54.397Z,23.67
2022-08-26T05:53:26.240Z,23.74
2022-08-26T05:55:55.675Z,23.83
2022-08-26T05:58:24.900Z,23.92
2022-08-26T06:01:03.186Z,24.01
2022-08-26T06:03:34.616Z,24.08
2022-08-26T06:06:06.281Z,24.15
2022-08-26T06:08:37.289Z,24.23
2022-08-26T06:11:08.442Z,24.31
2022-08-26T06:13:48.064Z,24.39
2022-08-26T06:16:19.741Z,24.48
2022-08-26T06:18:49.280Z,24.54
2022-08-26T06:21:19.367Z,24.61
2022-08-26T06:24:08.453Z,24.71
2022-08-26T06:26:37.505Z,24.80
2022-08-26T06:29:07.765Z,24.87
2022-08-26T06:31:37.809Z,24.95
2022-08-26T06:34:10.878Z,25.04
2022-08-26T06:36:39.563Z,25.10
2022-08-26T06:39:11.509Z,25.13
2022-08-26T06:41:43.380Z,25.22
2022-08-26T06:44:17.416Z,25.30
2022-08-26T06:46:45.987Z,25.38
2022-08-26T06:49:26.887Z,25.44
2022-08-26T06:51:58.412Z,25.51
2022-08-26T06:54:30.295Z,25.62
2022-08-26T06:56:58.958Z,25.71
2022-08-26T06:59:27.621Z,25.75
2022-08-26T07:01:56.313Z,25.80
2022-08-26T07:04:25.199Z,25.82
2022-08-26T07:07:01.759Z,25.83
2022-08-26T07:09:33.255Z,25.89
2022-08-26T07:12:03.921Z,25.93
2022-08-26T07:14:35.357Z,25.98
2022-08-26T07:17:03.609Z,26.04
2022-08-26T07:19:31.991Z,26.15
2022-08-26T07:22:02.262Z,26.20
2022-08-26T07:24:35.187Z,26.22
2022-08-26T07:27:06.312Z,26.26
2022-08-26T07:29:34.825Z,26.35
2022-08-26T07:32:03.398Z,26.38
2022-08-26T07:34:33.097Z,26.47
2022-08-26T07:37:02.030Z,26.47
2022-08-26T07:39:31.890Z,26.55
2022-08-26T07:42:07.500Z,26.62
2022-08-26T07:44:37.375Z,26.69
2022-08-26T07:47:19.392Z,26.76
2022-08-26T07:49:54.982Z,26.82
2022-08-26T07:52:26.738Z,26.87
2022-08-26T07:54:56.431Z,26.97
2022-08-26T07:57:26.546Z,27.02
2022-08-26T07:59:55.409Z,27.09
2022-08-26T08:02:24.903Z,27.09
2022-08-26T08:04:53.202Z,27.10
2022-08-26T08:07:38.368Z,27.15
2022-08-26T08:10:13.552Z,27.21
2022-08-26T08:12:43.576Z,27.31
2022-08-26T08:15:13.416Z,27.39
2022-08-26T08:17:43.455Z,27.44
2022-08-26T08:20:13.193Z,27.55
2022-08-26T08:22:42.499Z,27.55
2022-08-26T08:25:12.273Z,27.56
2022-08-26T08:27:45.144Z,27.62
2022-08-26T08:30:14.615Z,27.65
2022-08-26T08:32:44.458Z,27.68
2022-08-26T08:35:17.515Z,27.72
2022-08-26T08:37:46.689Z,27.87
2022-08-26T08:40:18.297Z,27.99
2022-08-26T08:42:55.313Z,28.04
2022-08-26T08:45:33.327Z,28.11
2022-08-26T08:48:07.999Z,28.17
2022-08-26T08:50:40.868Z,28.25
2022-08-26T08:53:15.650Z,28.29
2022-08-26T08:56:00.357Z,28.33
2022-08-26T08:58:45.287Z,28.33
2022-08-26T09:01:21.209Z,28.41
2022-08-26T09:03:56.730Z,28.50
2022-08-26T09:06:27.662Z,28.62
2022-08-26T09:08:57.412Z,28.75
2022-08-26T09:11:26.060Z,28.86
2022-08-26T09:13:56.744Z,28.93
2022-08-26T09:16:37.710Z,29.04
2022-08-26T09:19:15.394Z,29.07
2022-08-26T09:21:53.288Z,29.11
2022-08-26T09:24:22.259Z,29.18
2022-08-26T09:26:52.650Z,29.24
2022-08-26T09:29:25.717Z,29.20
2022-08-26T09:31:56.761Z,29.25
2022-08-26T09:34:27.209Z,29.32
2022-08-26T09:36:57.272Z,29.34
2022-08-26T09:39:37.769Z,29.38
2022-08-26T09:42:12.868Z,29.50
2022-08-26T09:44:59.780Z,29.57
2022-08-26T09:47:31.797Z,29.63
2022-08-26T09:50:09.611Z,29.71
2022-08-26T09:52:38.135Z,29.81
2022-08-26T09:55:14.068Z,29.81
2022-08-26T09:57:48.591Z,29.77
2022-08-26T10:00:34.231Z,29.86
2022-08-26T10:03:11.095Z,29.98
2022-08-26T10:05:48.558Z,30.10
2022-08-26T10:08:24.845Z,30.17
2022-08-26T10:10:53.951Z,30.22
2022-08-26T10:13:26.847Z,30.29
2022-08-26T10:16:07.064Z,30.32
2022-08-26T10:18:43.679Z,30.41
2022-08-26T10:21:17.978Z,30.44
2022-08-26T10:23:50.635Z,30.51
2022-08-26T10:26:25.257Z,30.54
2022-08-26T10:29:01.485Z,30.59
2022-08-26T10:31:40.487Z,30.66
2022-08-26T10:34:12.309Z,30.77
2022-08-26T10:37:14.401Z,30.84
2022-08-26T10:39:49.177Z,30.90
2022-08-26T10:42:27.522Z,30.97
2022-08-26T10:45:02.844Z,30.97
2022-08-26T10:47:39.392Z,31.03
2022-08-26T10:50:09.001Z,31.03
2022-08-26T10:52:52.589Z,31.11
2022-08-26T10:55:28.603Z,31.19
2022-08-26T10:58:04.963Z,31.18
2022-08-26T11:00:58.084Z,31.14
2022-08-26T11:03:38.934Z,31.29
2022-08-26T11:06:25.391Z,31.44
2022-08-26T11:08:54.817Z,31.49
2022-08-26T11:11:51.137Z,31.60
2022-08-26T11:14:42.061Z,31.72
2022-08-26T11:17:57.564Z,31.70
2022-08-26T11:20:42.068Z,31.81
2022-08-26T11:23:40.406Z,31.94
2022-08-26T11:26:37.834Z,32.11
2022-08-26T11:29:12.054Z,32.05
2022-08-26T11:31:56.338Z,32.15
2022-08-26T11:34:53.074Z,32.22
2022-08-26T11:37:27.475Z,32.29
2022-08-26T11:39:57.510Z,32.35
2022-08-26T11:42:37.022Z,32.44
2022-08-26T11:45:18.538Z,32.68
2022-08-26T11:47:49.381Z,32.78
2022-08-26T11:50:21.302Z,32.89
2022-08-26T11:53:02.471Z,33.00
2022-08-26T11:55:33.127Z,33.14
2022-08-26T11:58:02.578Z,33.20
2022-08-26T12:00:40.379Z,33.38
2022-08-26T12:03:22.991Z,33.66
2022-08-26T12:05:53.444Z,33.84
2022-08-26T12:08:28.497Z,34.03
2022-08-26T12:11:04.001Z,34.17
2022-08-26T12:13:32.916Z,34.18
2022-08-26T12:16:02.687Z,34.15
2022-08-26T12:18:33.543Z,34.30
2022-08-26T12:21:12.275Z,34.52
2022-08-26T12:23:47.361Z,34.70
2022-08-26T12:26:23.681Z,34.76
2022-08-26T12:28:55.907Z,34.83
2022-08-26T12:31:32.466Z,35.02
2022-08-26T12:34:03.283Z,35.19
2022-08-26T12:36:33.876Z,35.42
2022-08-26T12:39:12.728Z,35.40
2022-08-26T12:41:47.614Z,35.50
2022-08-26T12:44:36.886Z,35.59
2022-08-26T12:47:09.400Z,35.64
2022-08-26T12:49:39.491Z,35.59
2022-08-26T12:52:29.816Z,35.59
2022-08-26T12:55:01.341Z,35.79
2022-08-26T12:57:32.597Z,35.89
2022-08-26T13:00:40.830Z,35.94
2022-08-26T13:03:47.771Z,36.11
2022-08-26T13:06:25.834Z,36.02
2022-08-26T13:08:55.413Z,35.97
2022-08-26T13:11:27.989Z,36.45
2022-08-26T13:13:57.502Z,36.49
2022-08-26T13:16:26.636Z,36.86
2022-08-26T13:18:56.933Z,37.01
2022-08-26T13:21:28.284Z,37.17
2022-08-26T13:24:06.206Z,37.26
2022-08-26T13:26:36.410Z,37.33
2022-08-26T13:29:08.426Z,37.27
2022-08-26T13:31:40.698Z,37.29
2022-08-26T13:34:10.432Z,37.22
2022-08-26T13:36:38.775Z,37.06
2022-08-26T13:39:07.581Z,37.09
2022-08-26T13:41:37.513Z,37.56
2022-08-26T13:44:06.853Z,37.64
2022-08-26T13:46:35.108Z,37.60
2022-08-26T13:49:03.988Z,37.47
2022-08-26T13:51:32.714Z,37.67
2022-08-26T13:54:01.740Z,37.62
2022-08-26T13:56:31.053Z,37.51
2022-08-26T13:59:01.515Z,37.63
2022-08-26T14:01:31.803Z,37.81
2022-08-26T14:04:00.287Z,37.28
2022-08-26T14:06:28.594Z,37.28
2022-08-26T14:08:56.863Z,37.11
2022-08-26T14:11:25.281Z,37.61
2022-08-26T14:13:53.768Z,37.64
2022-08-26T14:16:27.037Z,37.36
2022-08-26T14:19:01.501Z,37.51
2022-08-26T14:21:31.557Z,36.88
2022-08-26T14:24:01.110Z,37.21
2022-08-26T14:26:31.657Z,37.08
2022-08-26T14:29:00.901Z,37.29
2022-08-26T14:31:33.193Z,37.25
2022-08-26T14:34:05.881Z,37.33
2022-08-26T14:36:35.248Z,37.90
2022-08-26T14:39:08.148Z,37.97
2022-08-26T14:41:53.796Z,37.71
2022-08-26T14:44:27.478Z,37.31
2022-08-26T14:46:57.214Z,37.51
2022-08-26T14:49:27.378Z,37.68
2022-08-26T14:51:56.649Z,37.36
2022-08-26T14:54:24.032Z,36.81
2022-08-26T14:56:55.107Z,36.88
2022-08-26T14:59:27.972Z,36.75
2022-08-26T15:01:58.432Z,37.05
2022-08-26T15:04:27.048Z,37.32
2022-08-26T15:06:59.583Z,37.68
2022-08-26T15:09:28.830Z,37.17
2022-08-26T15:11:57.222Z,37.24
2022-08-26T15:14:28.622Z,37.12
2022-08-26T15:17:00.795Z,36.62
2022-08-26T15:19:29.626Z,36.65
2022-08-26T15:21:58.174Z,36.97
2022-08-26T15:24:30.063Z,37.48
2022-08-26T15:26:58.746Z,38.04
2022-08-26T15:29:27.188Z,38.41
2022-08-26T15:31:57.383Z,38.53
2022-08-26T15:34:27.238Z,37.53
2022-08-26T15:36:55.759Z,37.33
2022-08-26T15:39:24.038Z,37.28
2022-08-26T15:41:56.128Z,37.17
2022-08-26T15:44:24.731Z,36.96
2022-08-26T15:46:58.240Z,36.99
2022-08-26T15:49:28.608Z,36.27
2022-08-26T15:51:56.820Z,36.09
2022-08-26T15:54:25.160Z,35.71
2022-08-26T15:56:53.849Z,35.55
2022-08-26T15:59:23.041Z,35.17
2022-08-26T16:01:52.517Z,34.86
2022-08-26T16:04:21.268Z,34.50
2022-08-26T16:06:52.295Z,34.36
2022-08-26T16:09:24.274Z,34.40
2022-08-26T16:11:52.981Z,34.20
2022-08-26T16:14:21.627Z,33.96
2022-08-26T16:16:50.573Z,33.68
2022-08-26T16:19:19.274Z,33.85
2022-08-26T16:21:48.110Z,33.66
2022-08-26T16:24:18.954Z,33.40
2022-08-26T16:26:47.337Z,33.31
2022-08-26T16:29:17.390Z,33.17
2022-08-26T16:31:45.562Z,33.27
2022-08-26T16:34:13.680Z,33.20
2022-08-26T16:36:42.231Z,33.22
2022-08-26T16:39:10.870Z,33.20
2022-08-26T16:41:45.789Z,33.13
2022-08-26T16:44:14.132Z,33.07
2022-08-26T16:46:42.385Z,33.02
2022-08-26T16:49:10.585Z,33.18
2022-08-26T16:51:38.762Z,33.18
2022-08-26T16:54:07.722Z,33.14
2022-08-26T16:56:37.427Z,33.20
2022-08-26T16:59:14.111Z,33.26
2022-08-26T17:01:42.425Z,33.17
2022-08-26T17:04:13.280Z,33.15
2022-08-26T17:06:42.017Z,33.02
2022-08-26T17:09:10.246Z,33.02
2022-08-26T17:11:38.490Z,32.94
2022-08-26T17:14:08.250Z,32.95
2022-08-26T17:16:36.455Z,32.72
2022-08-26T17:19:06.724Z,32.69
2022-08-26T17:21:36.727Z,32.63
2022-08-26T17:24:06.064Z,32.56
2022-08-26T17:26:34.414Z,32.41
2022-08-26T17:29:12.846Z,32.12
2022-08-26T17:31:43.835Z,31.96
2022-08-26T17:34:12.044Z,31.79
2022-08-26T17:36:40.577Z,31.78
2022-08-26T17:39:08.752Z,31.72
2022-08-26T17:41:37.023Z,31.72
2022-08-26T17:44:05.566Z,31.57
2022-08-26T17:46:38.177Z,31.48
2022-08-26T17:49:07.527Z,31.44
2022-08-26T17:51:35.658Z,31.33
2022-08-26T17:54:04.001Z,31.24
2022-08-26T17:56:32.429Z,31.15
2022-08-26T17:59:02.195Z,31.00
2022-08-26T18:01:32.310Z,30.90
2022-08-26T18:04:02.048Z,30.73
2022-08-26T18:06:31.457Z,30.61
2022-08-26T18:09:00.553Z,30.47
2022-08-26T18:11:29.369Z,30.44
2022-08-26T18:13:57.537Z,30.37
2022-08-26T18:16:25.829Z,30.31
2022-08-26T18:18:54.133Z,30.22
2022-08-26T18:21:25.485Z,30.08
2022-08-26T18:23:54.480Z,29.99
2022-08-26T18:26:25.304Z,29.85
2022-08-26T18:28:53.455Z,29.80
2022-08-26T18:31:22.120Z,29.72
2022-08-26T18:33:50.348Z,29.63
2022-08-26T18:36:21.704Z,29.57
2022-08-26T18:38:52.461Z,29.52
2022-08-26T18:41:22.767Z,29.45
2022-08-26T18:43:52.826Z,29.32
2022-08-26T18:46:22.863Z,29.30
2022-08-26T18:48:51.415Z,29.29
2022-08-26T18:51:21.599Z,29.20
2022-08-26T18:53:51.544Z,29.18
2022-08-26T18:56:20.348Z,29.14
2022-08-26T18:58:49.097Z,29.15
2022-08-26T19:01:18.261Z,29.05
2022-08-26T19:03:46.758Z,28.88
2022-08-26T19:06:16.536Z,28.80
2022-08-26T19:08:44.931Z,28.67
2022-08-26T19:11:14.682Z,28.61
2022-08-26T19:13:43.655Z,28.56
2022-08-26T19:16:16.754Z,28.55
2022-08-26T19:18:44.999Z,28.50
2022-08-26T19:21:13.616Z,28.43
2022-08-26T19:23:42.329Z,28.36
2022-08-26T19:26:12.146Z,28.28
2022-08-26T19:28:42.162Z,28.17
2022-08-26T19:31:11.606Z,28.13
2022-08-26T19:33:40.616Z,28.08
2022-08-26T19:36:14.134Z,28.04
2022-08-26T19:38:43.408Z,27.93
2022-08-26T19:41:13.903Z,27.86
2022-08-26T19:43:43.677Z,27.83
2022-08-26T19:46:17.368Z,27.82
2022-08-26T19:48:46.159Z,27.78
2022-08-26T19:51:15.907Z,27.82
2022-08-26T19:53:44.717Z,27.83
2022-08-26T19:56:13.879Z,27.86
2022-08-26T19:58:44.278Z,27.88
2022-08-26T20:01:13.545Z,27.81
2022-08-26T20:03:42.457Z,27.74
2022-08-26T20:06:12.045Z,27.68
2022-08-26T20:08:41.802Z,27.71
2022-08-26T20:11:13.235Z,27.72
2022-08-26T20:13:42.167Z,27.66
2022-08-26T20:16:13.013Z,27.62
2022-08-26T20:18:58.995Z,27.61
2022-08-26T20:21:27.271Z,27.53
2022-08-26T20:23:57.224Z,27.47
2022-08-26T20:26:26.106Z,27.43
2022-08-26T20:28:54.428Z,27.40
2022-08-26T20:31:26.131Z,27.43
2022-08-26T20:33:54.819Z,27.32
2022-08-26T20:36:27.035Z,27.23
2022-08-26T20:38:56.054Z,27.18
2022-08-26T20:41:25.425Z,27.17
2022-08-26T20:43:53.922Z,27.22
2022-08-26T20:46:25.083Z,27.26
2022-08-26T20:48:54.188Z,27.23
2022-08-26T20:51:23.629Z,27.18
2022-08-26T20:53:52.283Z,27.19
2022-08-26T20:56:24.350Z,27.17
2022-08-26T20:58:54.061Z,27.15
2022-08-26T21:01:26.128Z,27.09
2022-08-26T21:03:55.708Z,26.99
2022-08-26T21:06:25.432Z,26.93
2022-08-26T21:08:54.894Z,26.87
2022-08-26T21:11:23.144Z,26.81
2022-08-26T21:14:16.047Z,26.80
2022-08-26T21:16:42.447Z,26.72
2022-08-26T21:19:12.199Z,26.71
2022-08-26T21:21:40.807Z,26.67
2022-08-26T21:24:09.667Z,26.69
2022-08-26T21:26:38.340Z,26.68
2022-08-26T21:29:09.709Z,26.66
2022-08-26T21:31:44.939Z,26.60
2022-08-26T21:34:17.253Z,26.59
2022-08-26T21:36:45.801Z,26.60
2022-08-26T21:39:14.826Z,26.63
2022-08-26T21:41:44.288Z,26.61
2022-08-26T21:44:13.919Z,26.64
2022-08-26T21:46:43.308Z,26.64
2022-08-26T21:49:13.895Z,26.66
2022-08-26T21:51:46.902Z,26.62
2022-08-26T21:54:17.493Z,26.60
2022-08-26T21:56:47.729Z,26.55
2022-08-26T21:59:18.148Z,26.48
2022-08-26T22:01:46.381Z,26.42
2022-08-26T22:04:15.036Z,26.44
2022-08-26T22:06:46.912Z,26.42
2022-08-26T22:09:16.958Z,26.38
2022-08-26T22:11:46.389Z,26.35
2022-08-26T22:14:15.086Z,26.31
2022-08-26T22:16:45.708Z,26.30
2022-08-26T22:19:20.032Z,26.28
2022-08-26T22:21:50.841Z,26.26
2022-08-26T22:24:20.010Z,26.18
2022-08-26T22:26:49.201Z,26.14
2022-08-26T22:29:18.392Z,26.14
2022-08-26T22:31:47.360Z,26.14
2022-08-26T22:34:17.484Z,26.08
2022-08-26T22:36:47.277Z,25.97
2022-08-26T22:39:18.640Z,25.92
2022-08-26T22:41:48.592Z,25.85
2022-08-26T22:44:17.620Z,25.79
2022-08-26T22:46:46.898Z,25.74
2022-08-26T22:49:16.972Z,25.68
2022-08-26T22:51:45.823Z,25.65
2022-08-26T22:54:14.928Z,25.67
2022-08-26T22:56:45.632Z,25.61
2022-08-26T22:59:16.222Z,25.32
2022-08-26T23:01:46.384Z,25.17
2022-08-26T23:04:14.933Z,25.18
2022-08-26T23:06:47.672Z,25.00
2022-08-26T23:09:18.126Z,24.90
2022-08-26T23:11:48.844Z,24.79
2022-08-26T23:14:18.133Z,24.73
2022-08-26T23:16:47.372Z,24.65
2022-08-26T23:19:18.311Z,24.55
2022-08-26T23:21:46.992Z,24.41
2022-08-26T23:24:15.822Z,24.36
2022-08-26T23:26:45.039Z,24.33
2022-08-26T23:29:15.612Z,24.27
2022-08-26T23:31:43.970Z,24.21
2022-08-26T23:34:30.065Z,24.09
2022-08-26T23:36:59.004Z,24.05
2022-08-26T23:39:28.309Z,24.01
2022-08-26T23:41:56.940Z,23.97
2022-08-26T23:44:26.790Z,24.03
2022-08-26T23:46:55.480Z,23.99
2022-08-26T23:49:23.884Z,24.03
2022-08-26T23:52:10.116Z,24.05
2022-08-26T23:54:38.926Z,23.91
2022-08-26T23:57:08.274Z,23.83
2022-08-26T23:59:38.607Z,23.71
